createdAt,value
2017-11-24T00:00:39.550Z,0
2017-11-24T00:01:49.341Z,0
2017-11-24T00:02:58.254Z,0
2017-11-24T00:04:07.180Z,0
2017-11-24T00:05:16.724Z,0
2017-11-24T00:06:25.364Z,0
2017-11-24T00:07:34.305Z,0
2017-11-24T00:08:43.759Z,0
2017-11-24T00:09:52.675Z,0
2017-11-24T00:11:01.703Z,0
2017-11-24T00:12:11.445Z,0
2017-11-24T00:13:20.633Z,0
2017-11-24T00:14:29.535Z,0
2017-11-24T00:15:39.000Z,0
2017-11-24T00:16:48.178Z,0
2017-11-24T00:17:57.653Z,0
2017-11-24T00:19:06.562Z,0
2017-11-24T00:20:15.493Z,0
2017-11-24T00:21:24.409Z,0
2017-11-24T00:22:33.865Z,0
2017-11-24T00:23:43.216Z,0
2017-11-24T00:24:52.133Z,0
2017-11-24T00:26:01.330Z,0
2017-11-24T00:27:10.882Z,0
2017-11-24T00:28:19.781Z,0
2017-11-24T00:29:28.989Z,0
2017-11-24T00:30:38.294Z,0
2017-11-24T00:31:47.774Z,0
2017-11-24T00:32:56.953Z,0
2017-11-24T00:34:06.165Z,0
2017-11-24T00:35:15.332Z,0
2017-11-24T00:36:24.249Z,0
2017-11-24T00:37:33.460Z,0
2017-11-24T00:38:42.387Z,0
2017-11-24T00:39:51.569Z,0
2017-11-24T00:41:00.465Z,0
2017-11-24T00:42:09.895Z,0
2017-11-24T00:43:19.308Z,0
2017-11-24T00:44:27.993Z,0
2017-11-24T00:45:37.752Z,0
2017-11-24T00:46:46.664Z,0
2017-11-24T00:47:56.124Z,0
2017-11-24T00:49:05.038Z,0
2017-11-24T00:50:13.963Z,0
2017-11-24T00:51:22.902Z,0
2017-11-24T00:52:31.800Z,0
2017-11-24T00:53:40.998Z,0
2017-11-24T00:54:50.172Z,0
2017-11-24T00:55:59.352Z,0
2017-11-24T00:57:08.833Z,0
2017-11-24T00:58:17.796Z,0
2017-11-24T00:59:26.992Z,0
2017-11-24T01:00:35.928Z,0
2017-11-24T01:01:45.123Z,0
2017-11-24T01:02:54.849Z,0
2017-11-24T01:04:03.747Z,0
2017-11-24T01:05:12.909Z,0
2017-11-24T01:06:22.604Z,0
2017-11-24T01:07:31.793Z,0
2017-11-24T01:08:40.699Z,0
2017-11-24T01:09:49.355Z,0
2017-11-24T01:10:58.817Z,0
2017-11-24T01:12:08.276Z,0
2017-11-24T01:13:17.451Z,0
2017-11-24T01:14:26.937Z,0
2017-11-24T01:15:35.839Z,0
2017-11-24T01:16:45.021Z,0
2017-11-24T01:17:54.202Z,0
2017-11-24T01:19:03.367Z,0
2017-11-24T01:20:12.033Z,0
2017-11-24T01:21:21.784Z,0
2017-11-24T01:22:30.985Z,0
2017-11-24T01:23:40.438Z,0
2017-11-24T01:24:49.614Z,0
2017-11-24T01:25:58.823Z,0
2017-11-24T01:27:07.684Z,0
2017-11-24T01:28:16.594Z,0
2017-11-24T01:29:26.038Z,0
2017-11-24T01:30:34.710Z,0
2017-11-24T01:31:44.133Z,0
2017-11-24T01:32:53.317Z,0
2017-11-24T01:34:03.006Z,0
2017-11-24T01:35:12.177Z,0
2017-11-24T01:36:21.115Z,0
2017-11-24T01:37:30.852Z,0
2017-11-24T01:38:40.083Z,0
2017-11-24T01:39:49.264Z,0
2017-11-24T01:40:58.475Z,0
2017-11-24T01:42:07.391Z,0
2017-11-24T01:43:16.291Z,0
2017-11-24T01:44:24.936Z,0
2017-11-24T01:45:33.849Z,0
2017-11-24T01:46:42.748Z,0
2017-11-24T01:47:52.204Z,0
2017-11-24T01:49:01.103Z,0
2017-11-24T01:50:10.300Z,0
2017-11-24T01:51:19.213Z,0
2017-11-24T01:52:28.421Z,0
2017-11-24T01:53:37.903Z,0
2017-11-24T01:54:46.827Z,0
2017-11-24T01:55:56.049Z,0
2017-11-24T01:57:05.479Z,0
2017-11-24T01:58:14.667Z,0
2017-11-24T01:59:23.328Z,0
2017-11-24T02:00:31.976Z,0
2017-11-24T02:01:40.893Z,0
2017-11-24T02:02:49.806Z,0
2017-11-24T02:03:58.708Z,0
2017-11-24T02:05:07.618Z,0
2017-11-24T02:06:16.559Z,0
2017-11-24T02:07:26.014Z,0
2017-11-24T02:08:35.209Z,0
2017-11-24T02:09:44.641Z,0
2017-11-24T02:10:53.284Z,0
2017-11-24T02:12:02.200Z,0
2017-11-24T02:13:10.854Z,0
2017-11-24T02:14:20.054Z,0
2017-11-24T02:15:28.966Z,0
2017-11-24T02:16:37.607Z,0
2017-11-24T02:17:46.535Z,0
2017-11-24T02:18:55.500Z,0
2017-11-24T02:20:04.434Z,0
2017-11-24T02:21:13.605Z,0
2017-11-24T02:22:23.053Z,0
2017-11-24T02:23:32.256Z,0
2017-11-24T02:24:41.493Z,0
2017-11-24T02:25:50.420Z,0
2017-11-24T02:26:59.609Z,0
2017-11-24T02:28:08.822Z,0
2017-11-24T02:29:17.774Z,0
2017-11-24T02:30:26.698Z,0
2017-11-24T02:31:35.608Z,0
2017-11-24T02:32:44.512Z,0
2017-11-24T02:33:53.419Z,0
2017-11-24T02:35:03.181Z,0
2017-11-24T02:36:12.376Z,0
2017-11-24T02:37:21.051Z,0
2017-11-24T02:38:30.550Z,0
2017-11-24T02:39:39.753Z,0
2017-11-24T02:40:48.901Z,0
2017-11-24T02:41:58.372Z,0
2017-11-24T02:43:07.559Z,0
2017-11-24T02:44:16.465Z,0
2017-11-24T02:45:25.661Z,0
2017-11-24T02:46:34.873Z,0
2017-11-24T02:47:44.119Z,0
2017-11-24T02:48:53.584Z,0
2017-11-24T02:50:02.499Z,0
2017-11-24T02:51:11.928Z,0
2017-11-24T02:52:21.717Z,0
2017-11-24T02:53:31.166Z,0
2017-11-24T02:54:40.069Z,0
2017-11-24T02:55:49.247Z,0
2017-11-24T02:56:58.428Z,0
2017-11-24T02:58:08.151Z,0
2017-11-24T02:59:17.648Z,0
2017-11-24T03:00:26.566Z,0
2017-11-24T03:01:36.040Z,0
2017-11-24T03:02:45.483Z,0
2017-11-24T03:03:54.404Z,0
2017-11-24T03:05:03.327Z,0
2017-11-24T03:06:12.235Z,0
2017-11-24T03:07:21.418Z,0
2017-11-24T03:08:30.612Z,0
2017-11-24T03:09:40.049Z,0
2017-11-24T03:10:49.251Z,0
2017-11-24T03:11:57.885Z,0
2017-11-24T03:13:07.070Z,0
2017-11-24T03:14:15.986Z,0
2017-11-24T03:15:24.906Z,0
2017-11-24T03:16:33.840Z,0
2017-11-24T03:17:42.478Z,0
2017-11-24T03:18:51.938Z,0
2017-11-24T03:20:00.919Z,0
2017-11-24T03:21:10.346Z,0
2017-11-24T03:22:19.265Z,0
2017-11-24T03:23:28.496Z,0
2017-11-24T03:24:37.968Z,0
2017-11-24T03:25:46.871Z,0
2017-11-24T03:26:55.799Z,0
2017-11-24T03:28:04.437Z,0
2017-11-24T03:29:14.169Z,0
2017-11-24T03:30:23.879Z,0
2017-11-24T03:31:33.351Z,0
2017-11-24T03:32:42.527Z,0
2017-11-24T03:33:51.719Z,0
2017-11-24T03:35:00.654Z,0
2017-11-24T03:36:09.823Z,0
2017-11-24T03:37:18.993Z,0
2017-11-24T03:38:27.932Z,0
2017-11-24T03:39:36.851Z,0
2017-11-24T03:40:46.313Z,0
2017-11-24T03:41:55.470Z,0
2017-11-24T03:43:04.658Z,0
2017-11-24T03:44:14.392Z,0
2017-11-24T03:45:23.550Z,0
2017-11-24T03:46:33.001Z,0
2017-11-24T03:47:42.435Z,0
2017-11-24T03:48:51.619Z,0
2017-11-24T03:50:00.560Z,0
2017-11-24T03:51:09.725Z,0
2017-11-24T03:52:18.926Z,0
2017-11-24T03:53:27.844Z,0
2017-11-24T03:54:37.077Z,0
2017-11-24T03:55:45.738Z,0
2017-11-24T03:56:54.912Z,0
2017-11-24T03:58:03.825Z,0
2017-11-24T03:59:12.727Z,0
2017-11-24T04:00:21.654Z,0
2017-11-24T04:01:30.829Z,0
2017-11-24T04:02:39.498Z,0
2017-11-24T04:03:48.397Z,0
2017-11-24T04:04:57.824Z,0
2017-11-24T04:06:07.037Z,0
2017-11-24T04:07:16.225Z,0
2017-11-24T04:08:25.691Z,0
2017-11-24T04:09:34.616Z,0
2017-11-24T04:10:43.809Z,0
2017-11-24T04:11:52.710Z,0
2017-11-24T04:13:01.376Z,0
2017-11-24T04:14:10.278Z,0
2017-11-24T04:15:19.182Z,0
2017-11-24T04:16:28.649Z,0
2017-11-24T04:17:37.830Z,0
2017-11-24T04:18:46.493Z,0
2017-11-24T04:19:55.663Z,0
2017-11-24T04:21:04.575Z,0
2017-11-24T04:22:13.769Z,0
2017-11-24T04:23:22.951Z,0
2017-11-24T04:24:31.868Z,0
2017-11-24T04:25:41.052Z,0
2017-11-24T04:26:49.957Z,0
2017-11-24T04:27:59.135Z,0
2017-11-24T04:29:08.580Z,0
2017-11-24T04:30:17.769Z,0
2017-11-24T04:31:27.221Z,0
2017-11-24T04:32:36.120Z,0
2017-11-24T04:33:45.043Z,0
2017-11-24T04:34:54.267Z,0
2017-11-24T04:36:03.212Z,0
2017-11-24T04:37:12.639Z,0
2017-11-24T04:38:22.333Z,0
2017-11-24T04:39:31.280Z,0
2017-11-24T04:40:40.439Z,0
2017-11-24T04:41:49.606Z,0
2017-11-24T04:42:58.282Z,0
2017-11-24T04:44:07.757Z,0
2017-11-24T04:45:16.464Z,0
2017-11-24T04:46:25.650Z,0
2017-11-24T04:47:34.324Z,0
2017-11-24T04:48:43.799Z,0
2017-11-24T04:49:52.704Z,0
2017-11-24T04:51:01.365Z,0
2017-11-24T04:52:10.264Z,0
2017-11-24T04:53:19.858Z,0
2017-11-24T04:54:29.054Z,0
2017-11-24T04:55:38.239Z,0
2017-11-24T04:56:47.147Z,0
2017-11-24T04:57:56.602Z,0
2017-11-24T04:59:05.534Z,0
2017-11-24T05:00:14.960Z,0
2017-11-24T05:01:24.129Z,0
2017-11-24T05:02:33.574Z,0
2017-11-24T05:03:43.027Z,0
2017-11-24T05:04:52.214Z,0
2017-11-24T05:06:01.408Z,0
2017-11-24T05:07:10.593Z,0
2017-11-24T05:08:19.508Z,0
2017-11-24T05:09:28.425Z,0
2017-11-24T05:10:37.337Z,0
2017-11-24T05:11:46.773Z,0
2017-11-24T05:12:56.212Z,0
2017-11-24T05:14:05.384Z,0
2017-11-24T05:15:14.556Z,0
2017-11-24T05:16:23.255Z,0
2017-11-24T05:17:32.700Z,0
2017-11-24T05:18:41.888Z,0
2017-11-24T05:19:51.062Z,0
2017-11-24T05:21:00.507Z,0
2017-11-24T05:22:09.693Z,0
2017-11-24T05:23:19.432Z,0
2017-11-24T05:24:28.361Z,0
2017-11-24T05:25:37.543Z,0
2017-11-24T05:26:46.446Z,0
2017-11-24T05:27:55.416Z,0
2017-11-24T05:29:05.107Z,0
2017-11-24T05:30:14.307Z,0
2017-11-24T05:31:23.248Z,0
2017-11-24T05:32:32.172Z,0
2017-11-24T05:33:40.813Z,0
2017-11-24T05:34:49.551Z,0
2017-11-24T05:35:58.198Z,0
2017-11-24T05:37:07.365Z,0
2017-11-24T05:38:16.616Z,0
2017-11-24T05:39:26.372Z,0
2017-11-24T05:40:35.169Z,0
2017-11-24T05:41:43.824Z,0
2017-11-24T05:42:53.012Z,0
2017-11-24T05:44:02.270Z,0
2017-11-24T05:45:11.463Z,0
2017-11-24T05:46:20.357Z,0
2017-11-24T05:47:29.304Z,0
2017-11-24T05:48:38.496Z,0
2017-11-24T05:49:47.148Z,0
2017-11-24T05:50:56.326Z,0
2017-11-24T05:52:05.783Z,0
2017-11-24T05:53:14.968Z,0
2017-11-24T05:54:24.144Z,0
2017-11-24T05:55:33.556Z,0
2017-11-24T05:56:43.261Z,0
2017-11-24T05:57:52.986Z,0
2017-11-24T05:59:01.912Z,0
2017-11-24T06:00:11.378Z,0
2017-11-24T06:01:20.574Z,0
2017-11-24T06:02:29.492Z,0
2017-11-24T06:03:38.698Z,0
2017-11-24T06:04:48.123Z,0
2017-11-24T06:05:57.051Z,0
2017-11-24T06:07:06.269Z,0
2017-11-24T06:08:15.230Z,0
2017-11-24T06:09:24.664Z,0
2017-11-24T06:10:33.845Z,0
2017-11-24T06:11:43.052Z,4
2017-11-24T06:12:51.744Z,8
2017-11-24T06:14:00.718Z,4
2017-11-24T06:15:10.484Z,8
2017-11-24T06:16:19.666Z,8
2017-11-24T06:17:28.837Z,8
2017-11-24T06:18:37.812Z,8
2017-11-24T06:19:47.001Z,8
2017-11-24T06:20:56.495Z,4
2017-11-24T06:22:05.730Z,4
2017-11-24T06:23:14.908Z,4
2017-11-24T06:24:24.151Z,4
2017-11-24T06:25:33.616Z,4
2017-11-24T06:26:42.826Z,4
2017-11-24T06:27:51.757Z,4
2017-11-24T06:29:00.648Z,4
2017-11-24T06:30:09.846Z,4
2017-11-24T06:31:19.043Z,4
2017-11-24T06:32:28.260Z,4
2017-11-24T06:33:37.176Z,8
2017-11-24T06:34:46.369Z,8
2017-11-24T06:35:55.023Z,4
2017-11-24T06:37:03.693Z,8
2017-11-24T06:38:13.156Z,8
2017-11-24T06:39:22.066Z,8
2017-11-24T06:40:31.525Z,8
2017-11-24T06:41:40.743Z,8
2017-11-24T06:42:49.935Z,8
2017-11-24T06:43:59.118Z,4
2017-11-24T06:45:07.788Z,8
2017-11-24T06:46:16.452Z,4
2017-11-24T06:47:25.919Z,4
2017-11-24T06:48:34.564Z,8
2017-11-24T06:49:43.784Z,4
2017-11-24T06:50:53.235Z,8
2017-11-24T06:52:02.436Z,8
2017-11-24T06:53:11.875Z,16
2017-11-24T06:54:21.041Z,16
2017-11-24T06:55:29.687Z,16
2017-11-24T06:56:38.859Z,20
2017-11-24T06:57:48.098Z,20
2017-11-24T06:58:56.758Z,20
2017-11-24T07:00:05.684Z,16
2017-11-24T07:01:14.614Z,12
2017-11-24T07:02:24.010Z,12
2017-11-24T07:03:32.650Z,12
2017-11-24T07:04:41.546Z,12
2017-11-24T07:05:50.484Z,16
2017-11-24T07:06:59.162Z,16
2017-11-24T07:08:08.595Z,24
2017-11-24T07:09:17.506Z,20
2017-11-24T07:10:26.414Z,16
2017-11-24T07:11:35.842Z,20
2017-11-24T07:12:45.035Z,20
2017-11-24T07:13:54.411Z,12
2017-11-24T07:15:03.579Z,12
2017-11-24T07:16:13.040Z,12
2017-11-24T07:17:22.209Z,12
2017-11-24T07:18:31.117Z,12
2017-11-24T07:19:40.584Z,20
2017-11-24T07:20:50.286Z,16
2017-11-24T07:21:59.526Z,24
2017-11-24T07:23:08.723Z,20
2017-11-24T07:24:17.638Z,24
2017-11-24T07:25:26.553Z,24
2017-11-24T07:26:35.731Z,16
2017-11-24T07:27:44.383Z,16
2017-11-24T07:28:53.041Z,12
2017-11-24T07:30:02.225Z,12
2017-11-24T07:31:11.673Z,12
2017-11-24T07:32:20.334Z,12
2017-11-24T07:33:29.270Z,12
2017-11-24T07:34:38.183Z,12
2017-11-24T07:35:47.617Z,12
2017-11-24T07:36:57.059Z,12
2017-11-24T07:38:06.487Z,8
2017-11-24T07:39:15.421Z,8
2017-11-24T07:40:24.332Z,8
2017-11-24T07:41:33.243Z,12
2017-11-24T07:42:42.416Z,12
2017-11-24T07:43:51.357Z,8
2017-11-24T07:45:00.017Z,16
2017-11-24T07:46:08.947Z,16
2017-11-24T07:47:18.117Z,8
2017-11-24T07:48:27.559Z,8
2017-11-24T07:49:36.993Z,12
2017-11-24T07:50:45.945Z,16
2017-11-24T07:51:55.196Z,28
2017-11-24T07:53:04.894Z,20
2017-11-24T07:54:13.552Z,20
2017-11-24T07:55:22.741Z,24
2017-11-24T07:56:31.664Z,20
2017-11-24T07:57:41.108Z,16
2017-11-24T07:58:50.537Z,20
2017-11-24T07:59:59.454Z,16
2017-11-24T08:01:08.902Z,20
2017-11-24T08:02:18.086Z,24
2017-11-24T08:03:26.735Z,24
2017-11-24T08:04:35.909Z,24
2017-11-24T08:05:44.821Z,24
2017-11-24T08:06:54.278Z,28
2017-11-24T08:08:02.934Z,28
2017-11-24T08:09:11.840Z,32
2017-11-24T08:10:21.282Z,32
2017-11-24T08:11:30.469Z,36
2017-11-24T08:12:40.155Z,44
2017-11-24T08:13:49.614Z,44
2017-11-24T08:14:58.539Z,44
2017-11-24T08:16:07.970Z,48
2017-11-24T08:17:17.215Z,56
2017-11-24T08:18:25.880Z,56
2017-11-24T08:19:35.158Z,60
2017-11-24T08:20:44.590Z,68
2017-11-24T08:21:53.768Z,68
2017-11-24T08:23:03.209Z,72
2017-11-24T08:24:12.385Z,76
2017-11-24T08:25:21.297Z,84
2017-11-24T08:26:30.205Z,68
2017-11-24T08:27:39.649Z,68
2017-11-24T08:28:48.817Z,64
2017-11-24T08:29:58.587Z,56
2017-11-24T08:31:07.786Z,72
2017-11-24T08:32:17.223Z,108
2017-11-24T08:33:26.691Z,132
2017-11-24T08:34:36.662Z,148
2017-11-24T08:35:45.584Z,144
2017-11-24T08:36:54.835Z,148
2017-11-24T08:38:04.012Z,168
2017-11-24T08:39:13.186Z,212
2017-11-24T08:40:22.100Z,228
2017-11-24T08:41:31.299Z,232
2017-11-24T08:42:40.756Z,332
2017-11-24T08:43:49.915Z,504
2017-11-24T08:44:59.081Z,592
2017-11-24T08:46:08.279Z,520
2017-11-24T08:47:17.733Z,300
2017-11-24T08:48:27.255Z,228
2017-11-24T08:49:36.485Z,212
2017-11-24T08:50:45.421Z,208
2017-11-24T08:51:54.660Z,192
2017-11-24T08:53:04.371Z,216
2017-11-24T08:54:13.059Z,260
2017-11-24T08:55:22.485Z,308
2017-11-24T08:56:31.785Z,332
2017-11-24T08:57:41.227Z,360
2017-11-24T08:58:50.405Z,356
2017-11-24T08:59:59.479Z,276
2017-11-24T09:01:08.589Z,224
2017-11-24T09:02:18.194Z,180
2017-11-24T09:03:27.273Z,188
2017-11-24T09:04:36.852Z,152
2017-11-24T09:05:46.099Z,148
2017-11-24T09:06:55.690Z,148
2017-11-24T09:08:04.751Z,132
2017-11-24T09:09:14.018Z,128
2017-11-24T09:10:22.992Z,132
2017-11-24T09:11:32.252Z,188
2017-11-24T09:12:41.238Z,252
2017-11-24T09:13:50.351Z,248
2017-11-24T09:14:59.421Z,196
2017-11-24T09:16:08.389Z,176
2017-11-24T09:17:17.618Z,224
2017-11-24T09:18:27.138Z,300
2017-11-24T09:19:36.272Z,412
2017-11-24T09:20:47.025Z,476
2017-11-24T09:21:56.003Z,456
2017-11-24T09:23:05.177Z,464
2017-11-24T09:24:14.089Z,392
2017-11-24T09:25:23.281Z,356
2017-11-24T09:26:32.719Z,324
2017-11-24T09:27:41.903Z,280
2017-11-24T09:28:51.542Z,248
2017-11-24T09:30:01.200Z,228
2017-11-24T09:31:10.431Z,232
2017-11-24T09:32:19.878Z,284
2017-11-24T09:33:29.696Z,308
2017-11-24T09:34:38.993Z,300
2017-11-24T09:35:48.483Z,360
2017-11-24T09:36:58.093Z,392
2017-11-24T09:38:07.419Z,372
2017-11-24T09:39:16.420Z,404
2017-11-24T09:40:25.416Z,452
2017-11-24T09:41:34.560Z,472
2017-11-24T09:42:43.599Z,484
2017-11-24T09:43:52.554Z,476
2017-11-24T09:45:01.885Z,412
2017-11-24T09:46:11.567Z,388
2017-11-24T09:47:20.835Z,520
2017-11-24T09:48:30.160Z,592
2017-11-24T09:49:39.198Z,552
2017-11-24T09:50:48.215Z,488
2017-11-24T09:51:57.373Z,264
2017-11-24T09:53:06.726Z,176
2017-11-24T09:54:16.519Z,148
2017-11-24T09:55:26.028Z,156
2017-11-24T09:56:35.439Z,236
2017-11-24T09:57:44.798Z,384
2017-11-24T09:58:53.741Z,464
2017-11-24T10:00:03.071Z,416
2017-11-24T10:01:12.340Z,320
2017-11-24T10:02:21.794Z,304
2017-11-24T10:03:30.990Z,352
2017-11-24T10:04:39.953Z,368
2017-11-24T10:05:49.035Z,448
2017-11-24T10:06:58.419Z,520
2017-11-24T10:08:07.136Z,492
2017-11-24T10:09:16.197Z,332
2017-11-24T10:10:25.474Z,276
2017-11-24T10:11:34.190Z,220
2017-11-24T10:12:43.260Z,196
2017-11-24T10:13:52.289Z,200
2017-11-24T10:15:01.900Z,208
2017-11-24T10:16:11.244Z,248
2017-11-24T10:17:20.499Z,256
2017-11-24T10:18:30.317Z,272
2017-11-24T10:19:39.854Z,264
2017-11-24T10:20:49.458Z,292
2017-11-24T10:21:58.425Z,276
2017-11-24T10:23:07.587Z,252
2017-11-24T10:24:16.720Z,288
2017-11-24T10:25:25.988Z,324
2017-11-24T10:26:35.295Z,328
2017-11-24T10:27:44.393Z,268
2017-11-24T10:28:53.722Z,252
2017-11-24T10:30:03.060Z,292
2017-11-24T10:31:12.281Z,468
2017-11-24T10:32:21.457Z,532
2017-11-24T10:33:30.395Z,524
2017-11-24T10:34:39.436Z,516
2017-11-24T10:35:48.915Z,520
2017-11-24T10:36:57.880Z,504
2017-11-24T10:38:06.536Z,492
2017-11-24T10:39:15.726Z,448
2017-11-24T10:40:24.907Z,432
2017-11-24T10:41:34.127Z,432
2017-11-24T10:42:43.591Z,468
2017-11-24T10:43:52.758Z,492
2017-11-24T10:45:02.202Z,620
2017-11-24T10:46:11.393Z,808
2017-11-24T10:47:21.143Z,696
2017-11-24T10:48:30.336Z,672
2017-11-24T10:49:39.533Z,688
2017-11-24T10:50:48.710Z,584
2017-11-24T10:51:58.220Z,544
2017-11-24T10:53:07.933Z,572
2017-11-24T10:54:16.841Z,572
2017-11-24T10:55:26.558Z,696
2017-11-24T10:56:35.992Z,740
2017-11-24T10:57:45.437Z,844
2017-11-24T10:58:54.371Z,784
2017-11-24T11:00:03.365Z,704
2017-11-24T11:01:12.787Z,648
2017-11-24T11:02:22.246Z,636
2017-11-24T11:03:31.437Z,656
2017-11-24T11:04:40.629Z,720
2017-11-24T11:05:50.076Z,736
2017-11-24T11:06:58.993Z,680
2017-11-24T11:08:08.165Z,632
2017-11-24T11:09:17.350Z,552
2017-11-24T11:10:26.849Z,528
2017-11-24T11:11:35.753Z,536
2017-11-24T11:12:44.915Z,552
2017-11-24T11:13:53.883Z,640
2017-11-24T11:15:02.825Z,700
2017-11-24T11:16:12.090Z,648
2017-11-24T11:17:21.547Z,528
2017-11-24T11:18:30.996Z,584
2017-11-24T11:19:39.911Z,556
2017-11-24T11:20:49.090Z,516
2017-11-24T11:21:58.015Z,492
2017-11-24T11:23:07.456Z,632
2017-11-24T11:24:16.101Z,688
2017-11-24T11:25:25.288Z,680
2017-11-24T11:26:33.982Z,544
2017-11-24T11:27:43.160Z,532
2017-11-24T11:28:52.082Z,508
2017-11-24T11:30:01.002Z,568
2017-11-24T11:31:10.189Z,648
2017-11-24T11:32:19.357Z,664
2017-11-24T11:33:28.532Z,644
2017-11-24T11:34:37.447Z,520
2017-11-24T11:35:46.356Z,516
2017-11-24T11:36:55.007Z,504
2017-11-24T11:38:03.922Z,576
2017-11-24T11:39:13.123Z,616
2017-11-24T11:40:22.305Z,484
2017-11-24T11:41:31.223Z,468
2017-11-24T11:42:40.141Z,484
2017-11-24T11:43:49.581Z,544
2017-11-24T11:44:58.496Z,604
2017-11-24T11:46:07.162Z,560
2017-11-24T11:47:16.352Z,580
2017-11-24T11:48:25.849Z,516
2017-11-24T11:49:34.504Z,484
2017-11-24T11:50:43.446Z,432
2017-11-24T11:51:52.644Z,496
2017-11-24T11:53:01.577Z,568
2017-11-24T11:54:11.062Z,748
2017-11-24T11:55:19.992Z,960
2017-11-24T11:56:28.930Z,1008
2017-11-24T11:57:37.606Z,1064
2017-11-24T11:58:47.305Z,1100
2017-11-24T11:59:55.962Z,1168
2017-11-24T12:01:04.875Z,1112
2017-11-24T12:02:13.537Z,1048
2017-11-24T12:03:22.440Z,896
2017-11-24T12:04:31.364Z,716
2017-11-24T12:05:40.276Z,576
2017-11-24T12:06:49.185Z,440
2017-11-24T12:07:58.101Z,364
2017-11-24T12:09:07.264Z,400
2017-11-24T12:10:16.715Z,444
2017-11-24T12:11:25.888Z,448
2017-11-24T12:12:35.072Z,416
2017-11-24T12:13:44.270Z,424
2017-11-24T12:14:53.457Z,452
2017-11-24T12:16:02.895Z,492
2017-11-24T12:17:11.548Z,540
2017-11-24T12:18:20.729Z,572
2017-11-24T12:19:30.177Z,608
2017-11-24T12:20:39.365Z,636
2017-11-24T12:21:49.089Z,620
2017-11-24T12:22:58.531Z,528
2017-11-24T12:24:07.708Z,428
2017-11-24T12:25:16.603Z,372
2017-11-24T12:26:25.776Z,324
2017-11-24T12:27:34.695Z,280
2017-11-24T12:28:43.348Z,252
2017-11-24T12:29:52.807Z,244
2017-11-24T12:31:01.998Z,256
2017-11-24T12:32:11.196Z,296
2017-11-24T12:33:20.633Z,292
2017-11-24T12:34:29.829Z,260
2017-11-24T12:35:39.018Z,236
2017-11-24T12:36:48.214Z,216
2017-11-24T12:37:57.720Z,200
2017-11-24T12:39:06.637Z,176
2017-11-24T12:40:15.801Z,144
2017-11-24T12:41:24.973Z,148
2017-11-24T12:42:33.876Z,128
2017-11-24T12:43:43.332Z,116
2017-11-24T12:44:53.075Z,112
2017-11-24T12:46:01.994Z,112
2017-11-24T12:47:10.910Z,116
2017-11-24T12:48:19.565Z,112
2017-11-24T12:49:28.475Z,100
2017-11-24T12:50:37.390Z,108
2017-11-24T12:51:46.564Z,96
2017-11-24T12:52:55.492Z,96
2017-11-24T12:54:04.696Z,96
2017-11-24T12:55:14.399Z,100
2017-11-24T12:56:23.835Z,96
2017-11-24T12:57:33.269Z,88
2017-11-24T12:58:42.195Z,80
2017-11-24T12:59:51.915Z,84
2017-11-24T13:01:01.101Z,80
2017-11-24T13:02:09.749Z,92
2017-11-24T13:03:19.192Z,100
2017-11-24T13:04:28.130Z,112
2017-11-24T13:05:37.045Z,132
2017-11-24T13:06:45.963Z,152
2017-11-24T13:07:55.687Z,152
2017-11-24T13:09:05.142Z,228
2017-11-24T13:10:13.798Z,284
2017-11-24T13:11:22.714Z,212
2017-11-24T13:12:31.643Z,180
2017-11-24T13:13:41.089Z,160
2017-11-24T13:14:50.074Z,156
2017-11-24T13:15:59.576Z,212
2017-11-24T13:17:08.247Z,232
2017-11-24T13:18:17.186Z,196
2017-11-24T13:19:26.108Z,196
2017-11-24T13:20:35.279Z,204
2017-11-24T13:21:44.455Z,212
2017-11-24T13:22:53.888Z,176
2017-11-24T13:24:03.654Z,136
2017-11-24T13:25:12.623Z,136
2017-11-24T13:26:21.540Z,144
2017-11-24T13:27:30.506Z,152
2017-11-24T13:28:39.475Z,144
2017-11-24T13:29:48.398Z,140
2017-11-24T13:30:57.853Z,120
2017-11-24T13:32:06.776Z,112
2017-11-24T13:33:16.237Z,132
2017-11-24T13:34:24.878Z,148
2017-11-24T13:35:33.546Z,172
2017-11-24T13:36:43.011Z,160
2017-11-24T13:37:51.960Z,172
2017-11-24T13:39:01.343Z,164
2017-11-24T13:40:10.349Z,128
2017-11-24T13:41:19.000Z,136
2017-11-24T13:42:28.223Z,116
2017-11-24T13:43:38.074Z,148
2017-11-24T13:44:46.833Z,144
2017-11-24T13:45:56.024Z,160
2017-11-24T13:47:04.945Z,164
2017-11-24T13:48:14.128Z,140
2017-11-24T13:49:23.556Z,164
2017-11-24T13:50:33.022Z,188
2017-11-24T13:51:41.712Z,192
2017-11-24T13:52:50.943Z,188
2017-11-24T13:54:00.500Z,200
2017-11-24T13:55:09.982Z,172
2017-11-24T13:56:19.187Z,156
2017-11-24T13:57:28.244Z,160
2017-11-24T13:58:37.436Z,160
2017-11-24T13:59:46.931Z,144
2017-11-24T14:00:56.382Z,136
2017-11-24T14:02:05.053Z,128
2017-11-24T14:03:13.997Z,148
2017-11-24T14:04:22.950Z,152
2017-11-24T14:05:32.142Z,144
2017-11-24T14:06:41.041Z,128
2017-11-24T14:07:50.075Z,120
2017-11-24T14:08:58.932Z,144
2017-11-24T14:10:07.689Z,176
2017-11-24T14:11:16.936Z,180
2017-11-24T14:12:25.864Z,160
2017-11-24T14:13:35.348Z,120
2017-11-24T14:14:44.656Z,132
2017-11-24T14:15:54.122Z,140
2017-11-24T14:17:04.043Z,108
2017-11-24T14:18:13.228Z,104
2017-11-24T14:19:22.912Z,104
2017-11-24T14:20:31.606Z,120
2017-11-24T14:21:41.067Z,148
2017-11-24T14:22:49.982Z,136
2017-11-24T14:23:59.174Z,120
2017-11-24T14:25:08.121Z,108
2017-11-24T14:26:17.037Z,112
2017-11-24T14:27:25.731Z,136
2017-11-24T14:28:34.463Z,124
2017-11-24T14:29:43.896Z,128
2017-11-24T14:30:52.870Z,132
2017-11-24T14:32:02.313Z,164
2017-11-24T14:33:11.246Z,208
2017-11-24T14:34:20.192Z,208
2017-11-24T14:35:30.208Z,172
2017-11-24T14:36:39.662Z,160
2017-11-24T14:37:49.098Z,148
2017-11-24T14:38:58.136Z,144
2017-11-24T14:40:07.710Z,148
2017-11-24T14:41:17.173Z,152
2017-11-24T14:42:26.668Z,140
2017-11-24T14:43:35.319Z,136
2017-11-24T14:44:44.492Z,116
2017-11-24T14:45:53.413Z,112
2017-11-24T14:47:02.641Z,104
2017-11-24T14:48:11.410Z,112
2017-11-24T14:49:20.316Z,108
2017-11-24T14:50:28.972Z,100
2017-11-24T14:51:38.188Z,92
2017-11-24T14:52:47.006Z,84
2017-11-24T14:53:56.606Z,100
2017-11-24T14:55:06.098Z,108
2017-11-24T14:56:14.889Z,108
2017-11-24T14:57:24.141Z,96
2017-11-24T14:58:33.058Z,84
2017-11-24T14:59:42.383Z,96
2017-11-24T15:00:51.597Z,104
2017-11-24T15:02:00.889Z,120
2017-11-24T15:03:09.918Z,124
2017-11-24T15:04:18.596Z,116
2017-11-24T15:05:28.091Z,108
2017-11-24T15:06:37.015Z,112
2017-11-24T15:07:45.974Z,116
2017-11-24T15:08:54.879Z,108
2017-11-24T15:10:03.608Z,100
2017-11-24T15:11:12.808Z,108
2017-11-24T15:12:21.991Z,112
2017-11-24T15:13:31.048Z,100
2017-11-24T15:14:40.254Z,92
2017-11-24T15:15:49.437Z,96
2017-11-24T15:16:58.898Z,96
2017-11-24T15:18:08.455Z,88
2017-11-24T15:19:17.412Z,84
2017-11-24T15:20:26.384Z,80
2017-11-24T15:21:35.365Z,76
2017-11-24T15:22:44.620Z,68
2017-11-24T15:23:53.849Z,64
2017-11-24T15:25:03.057Z,56
2017-11-24T15:26:12.814Z,48
2017-11-24T15:27:21.862Z,48
2017-11-24T15:28:31.443Z,40
2017-11-24T15:29:40.412Z,36
2017-11-24T15:30:49.458Z,36
2017-11-24T15:31:58.946Z,32
2017-11-24T15:33:08.927Z,28
2017-11-24T15:34:18.109Z,28
2017-11-24T15:35:27.677Z,24
2017-11-24T15:36:37.040Z,24
2017-11-24T15:37:46.307Z,20
2017-11-24T15:38:55.263Z,12
2017-11-24T15:40:04.723Z,12
2017-11-24T15:41:13.383Z,12
2017-11-24T15:42:22.613Z,8
2017-11-24T15:43:32.228Z,8
2017-11-24T15:44:41.193Z,8
2017-11-24T15:45:50.677Z,4
2017-11-24T15:46:59.868Z,8
2017-11-24T15:48:08.808Z,4
2017-11-24T15:49:17.730Z,4
2017-11-24T15:50:26.703Z,0
2017-11-24T15:51:35.917Z,4
2017-11-24T15:52:45.180Z,4
2017-11-24T15:53:54.687Z,4
2017-11-24T15:55:04.183Z,0
2017-11-24T15:56:13.435Z,0
2017-11-24T15:57:22.235Z,0
2017-11-24T15:58:31.536Z,0
2017-11-24T15:59:41.018Z,0
2017-11-24T16:00:50.214Z,0
2017-11-24T16:01:59.143Z,0
2017-11-24T16:03:08.593Z,0
2017-11-24T16:04:18.093Z,0
2017-11-24T16:05:27.334Z,0
2017-11-24T16:06:36.287Z,0
2017-11-24T16:07:45.313Z,0
2017-11-24T16:08:54.262Z,0
2017-11-24T16:10:03.182Z,0
2017-11-24T16:11:12.373Z,0
2017-11-24T16:12:21.277Z,0
2017-11-24T16:13:30.730Z,0
2017-11-24T16:14:40.417Z,0
2017-11-24T16:15:50.136Z,0
2017-11-24T16:16:59.315Z,0
2017-11-24T16:18:08.805Z,0
2017-11-24T16:19:17.755Z,0
2017-11-24T16:20:27.256Z,0
2017-11-24T16:21:36.186Z,0
2017-11-24T16:22:45.371Z,0
2017-11-24T16:23:55.102Z,0
2017-11-24T16:25:04.559Z,0
2017-11-24T16:26:13.462Z,0
2017-11-24T16:27:23.070Z,0
2017-11-24T16:28:31.982Z,0